Time;durP1;ratioP1;P1;durP2;ratioP2;P2;SDS_P1;SDS_P2;PMS_P1;PMS_P2;Temp;Humidity;BMP_temperature;BMP_pressure;BME280_temperature;BME280_humidity;BME280_pressure;Samples;Min_cycle;Max_cycle;Signal;HPM_P1;HPM_P2
2023/09/24 00:01:45;;;;;;;16.35;10.15;;;;;;;25.44;nan;98060.88;5023070;28;20115;-64
2023/09/24 00:04:14;;;;;;;15.23;11.30;;;;;;;25.18;nan;98062.50;5019271;28;20081;-64
2023/09/24 00:06:45;;;;;;;14.95;11.50;;;;;;;25.16;nan;98051.16;5020479;28;20053;-64
2023/09/24 00:09:15;;;;;;;16.02;12.05;;;;;;;25.08;nan;98060.00;5022579;28;20049;-64
2023/09/24 00:11:44;;;;;;;14.52;11.20;;;;;;;25.10;nan;98063.19;5002138;28;20724;-64
2023/09/24 00:14:14;;;;;;;15.40;11.77;;;;;;;25.23;nan;98072.44;5033266;28;20045;-64
2023/09/24 00:16:43;;;;;;;13.70;11.25;;;;;;;25.34;nan;98063.00;5038435;28;20045;-64
2023/09/24 00:19:13;;;;;;;16.55;12.57;;;;;;;25.33;nan;98064.91;5040247;28;20378;-64
2023/09/24 00:21:43;;;;;;;17.35;13.75;;;;;;;25.46;nan;98068.69;5042877;28;20841;-64
2023/09/24 00:24:13;;;;;;;17.35;12.60;;;;;;;25.45;nan;98075.22;5040700;28;20716;-64
2023/09/24 00:26:42;;;;;;;20.13;14.65;;;;;;;25.36;nan;98077.84;5041661;28;20060;-64
2023/09/24 00:29:15;;;;;;;18.90;13.65;;;;;;;25.34;nan;98087.38;5042135;28;20156;-65
2023/09/24 00:31:45;;;;;;;18.73;13.60;;;;;;;25.44;nan;98096.13;5041990;28;20049;-64
2023/09/24 00:34:15;;;;;;;18.27;14.27;;;;;;;25.22;nan;98098.75;5042767;28;20144;-64
2023/09/24 00:36:44;;;;;;;16.65;13.23;;;;;;;25.28;nan;98094.00;5041285;28;20310;-64
2023/09/24 00:39:15;;;;;;;17.58;13.80;;;;;;;25.41;nan;98091.28;5040587;28;20123;-64
2023/09/24 00:41:45;;;;;;;20.00;13.73;;;;;;;25.36;nan;98096.00;5035632;28;20053;-64
2023/09/24 00:44:15;;;;;;;20.88;14.18;;;;;;;25.10;nan;98103.84;5024979;28;20056;-64
2023/09/24 00:46:46;;;;;;;15.00;12.20;;;;;;;24.98;nan;98092.72;5039993;28;20316;-64
2023/09/24 00:49:16;;;;;;;13.23;11.48;;;;;;;24.99;nan;98081.59;5031392;28;20060;-64
2023/09/24 00:51:48;;;;;;;16.73;11.88;;;;;;;25.21;nan;98080.06;5016279;28;20597;-63
2023/09/24 00:54:18;;;;;;;16.23;12.02;;;;;;;25.26;nan;98090.81;5043808;28;20467;-64
2023/09/24 00:56:47;;;;;;;13.10;10.70;;;;;;;25.11;nan;98100.03;5044244;28;20480;-64
2023/09/24 00:59:18;;;;;;;13.20;10.65;;;;;;;25.08;nan;98108.78;5027637;28;20483;-64
2023/09/24 01:01:49;;;;;;;12.27;10.23;;;;;;;25.11;nan;98112.78;5031973;28;20056;-64
2023/09/24 01:04:18;;;;;;;10.30;9.25;;;;;;;25.27;nan;98120.31;5039228;28;20078;-65
2023/09/24 01:06:48;;;;;;;12.50;10.23;;;;;;;25.43;nan;98118.09;5027163;28;20045;-64
2023/09/24 01:09:19;;;;;;;10.40;8.55;;;;;;;25.35;nan;98118.81;5039915;28;20048;-64
2023/09/24 01:11:52;;;;;;;15.27;9.35;;;;;;;25.26;nan;98117.91;5037029;28;20048;-64
2023/09/24 01:14:22;;;;;;;10.50;8.80;;;;;;;25.39;nan;98133.38;5017754;28;20073;-64
2023/09/24 01:16:51;;;;;;;11.38;9.02;;;;;;;25.39;nan;98128.75;5013431;28;20214;-64
2023/09/24 01:19:22;;;;;;;10.57;8.52;;;;;;;25.47;nan;98125.34;5016331;28;20736;-64
2023/09/24 01:21:52;;;;;;;10.27;9.10;;;;;;;25.50;nan;98115.78;5020560;28;20136;-64
2023/09/24 01:24:22;;;;;;;9.32;8.18;;;;;;;25.35;nan;98114.22;5018675;28;20064;-64
2023/09/24 01:26:52;;;;;;;11.10;8.68;;;;;;;25.39;nan;98117.13;5023815;28;20135;-63
2023/09/24 01:29:21;;;;;;;15.82;9.77;;;;;;;25.45;nan;98113.16;5019923;28;20161;-64
2023/09/24 01:31:51;;;;;;;10.45;9.02;;;;;;;25.36;nan;98104.94;5011463;28;20240;-63
2023/09/24 01:34:23;;;;;;;10.75;9.40;;;;;;;25.43;nan;98102.66;5012183;28;20041;-64
2023/09/24 01:36:53;;;;;;;11.15;9.95;;;;;;;25.32;nan;98100.44;5027871;28;20056;-63
2023/09/24 01:39:26;;;;;;;11.88;10.10;;;;;;;25.49;nan;98093.28;5030236;28;20045;-64
2023/09/24 01:41:56;;;;;;;19.00;15.30;;;;;;;25.60;nan;98096.63;5025080;28;20045;-64
2023/09/24 01:44:26;;;;;;;19.60;17.23;;;;;;;25.58;nan;98101.53;5017002;28;20073;-64
2023/09/24 01:46:55;;;;;;;19.38;16.75;;;;;;;25.43;nan;98110.78;5026497;28;20135;-64
2023/09/24 01:49:25;;;;;;;23.85;18.35;;;;;;;25.23;nan;98100.34;5035131;28;20541;-63
2023/09/24 01:51:54;;;;;;;26.27;19.40;;;;;;;25.30;nan;98095.34;5020609;28;20076;-64
2023/09/24 01:54:27;;;;;;;25.58;19.25;;;;;;;25.43;nan;98099.13;5028514;28;20041;-63
2023/09/24 01:56:57;;;;;;;26.58;19.95;;;;;;;25.70;nan;98101.81;5027695;28;20107;-64
2023/09/24 01:59:27;;;;;;;23.67;21.17;;;;;;;25.84;nan;98113.44;5025167;28;20144;-65
2023/09/24 02:01:57;;;;;;;23.77;21.23;;;;;;;25.81;nan;98124.91;5024819;28;20049;-64
2023/09/24 02:04:26;;;;;;;28.92;22.30;;;;;;;25.96;nan;98137.31;5024122;28;20392;-65
2023/09/24 02:06:56;;;;;;;26.02;21.17;;;;;;;26.06;nan;98149.88;5022844;28;20099;-65
2023/09/24 02:09:25;;;;;;;24.90;20.05;;;;;;;26.06;nan;98147.16;5008957;28;20049;-65
2023/09/24 02:11:56;;;;;;;22.40;18.77;;;;;;;25.95;nan;98146.56;5013244;28;20054;-65
2023/09/24 02:14:25;;;;;;;27.83;20.25;;;;;;;25.85;nan;98144.88;5010571;28;20155;-65
2023/09/24 02:16:55;;;;;;;25.45;19.60;;;;;;;25.77;nan;98148.31;5015905;28;20058;-65
2023/09/24 02:19:26;;;;;;;22.00;18.55;;;;;;;25.90;nan;98150.19;5029004;28;20037;-65
2023/09/24 02:21:56;;;;;;;21.52;18.80;;;;;;;25.94;nan;98186.47;5011800;28;20053;-64
2023/09/24 02:24:25;;;;;;;21.58;17.55;;;;;;;25.86;nan;98206.19;5023076;28;20595;-65
2023/09/24 02:26:55;;;;;;;21.60;18.50;;;;;;;25.75;nan;98217.56;5029675;28;20053;-64
2023/09/24 02:29:25;;;;;;;22.55;17.58;;;;;;;25.77;nan;98216.16;5023954;28;20115;-65
2023/09/24 02:31:54;;;;;;;27.48;19.27;;;;;;;25.78;nan;98222.38;5023220;28;20075;-65
2023/09/24 02:34:23;;;;;;;21.52;17.88;;;;;;;25.77;nan;98231.63;5006826;28;20477;-65
2023/09/24 02:36:54;;;;;;;20.20;17.75;;;;;;;25.68;nan;98253.22;5026943;28;20110;-64
2023/09/24 02:39:24;;;;;;;22.48;18.17;;;;;;;25.51;nan;98258.41;5023250;28;20329;-65
2023/09/24 02:41:53;;;;;;;19.35;17.35;;;;;;;25.41;nan;98267.53;5018895;28;20417;-64
2023/09/24 02:44:22;;;;;;;20.55;17.23;;;;;;;25.41;nan;98278.38;5024020;28;20669;-64
2023/09/24 02:46:52;;;;;;;19.15;15.80;;;;;;;25.46;nan;98282.91;5007291;28;20648;-64
2023/09/24 02:49:21;;;;;;;20.85;16.83;;;;;;;25.65;nan;98293.72;5026456;28;20050;-64
2023/09/24 02:51:50;;;;;;;19.65;16.05;;;;;;;25.72;nan;98308.47;5027914;28;20057;-64
2023/09/24 02:54:19;;;;;;;22.92;16.25;;;;;;;25.59;nan;98319.31;5026789;28;20789;-64
2023/09/24 02:56:50;;;;;;;18.77;16.83;;;;;;;25.57;nan;98316.91;5016395;28;20129;-64
2023/09/24 02:59:19;;;;;;;19.15;16.48;;;;;;;25.49;nan;98309.44;5011871;28;20049;-64
2023/09/24 03:01:49;;;;;;;20.08;17.40;;;;;;;25.52;nan;98303.41;5020850;28;20053;-64
2023/09/24 03:04:35;;;;;;;21.27;16.52;;;;;;;25.57;nan;98314.22;5026900;28;20116;-63
2023/09/24 03:07:10;;;;;;;19.42;16.73;;;;;;;25.75;nan;98302.47;5026055;28;20045;-64
2023/09/24 03:09:40;;;;;;;20.77;16.98;;;;;;;25.82;nan;98304.78;5027261;28;20461;-64
2023/09/24 03:12:09;;;;;;;17.83;16.05;;;;;;;25.88;nan;98328.81;5021920;28;20421;-64
2023/09/24 03:14:38;;;;;;;20.90;16.83;;;;;;;25.83;nan;98347.91;5027578;28;20056;-64
2023/09/24 03:17:08;;;;;;;21.63;17.15;;;;;;;25.85;nan;98348.38;5009278;28;20049;-63
2023/09/24 03:19:37;;;;;;;21.25;16.98;;;;;;;25.90;nan;98370.00;5036520;28;20049;-64
2023/09/24 03:22:06;;;;;;;20.70;16.45;;;;;;;25.87;nan;98378.75;5029303;28;20044;-65
2023/09/24 03:24:36;;;;;;;23.35;18.65;;;;;;;25.75;nan;98389.28;5047150;28;20110;-64
2023/09/24 03:27:05;;;;;;;21.05;18.75;;;;;;;25.74;nan;98398.53;5029590;28;20050;-65
2023/09/24 03:29:35;;;;;;;21.95;17.80;;;;;;;25.77;nan;98397.91;5027184;28;20053;-65
2023/09/24 03:32:22;;;;;;;24.13;20.63;;;;;;;25.97;nan;98417.66;5025011;28;20045;-65
2023/09/24 03:34:52;;;;;;;22.88;19.92;;;;;;;25.89;nan;98421.88;5020570;28;20145;-64
2023/09/24 03:37:22;;;;;;;26.40;21.77;;;;;;;25.73;nan;98423.22;5022663;28;20574;-65
2023/09/24 03:39:52;;;;;;;32.75;24.15;;;;;;;25.67;nan;98424.44;5011775;28;20552;-64
2023/09/24 03:42:21;;;;;;;29.08;23.60;;;;;;;25.59;nan;98428.63;5018666;28;20050;-64
2023/09/24 03:44:50;;;;;;;30.50;25.08;;;;;;;25.49;nan;98424.13;5026998;28;20053;-65
2023/09/24 03:47:20;;;;;;;33.92;25.42;;;;;;;25.51;nan;98429.25;5025580;28;20147;-64
2023/09/24 03:49:49;;;;;;;31.98;26.50;;;;;;;25.50;nan;98455.56;5026760;28;20056;-65
2023/09/24 03:52:18;;;;;;;29.08;25.73;;;;;;;25.21;nan;98454.94;5022743;28;20041;-64
2023/09/24 03:54:48;;;;;;;28.30;24.98;;;;;;;25.10;nan;98452.66;5009677;28;20050;-64
2023/09/24 03:57:17;;;;;;;32.13;25.27;;;;;;;24.96;nan;98439.84;5026515;28;20060;-64
2023/09/24 03:59:46;;;;;;;27.70;22.60;;;;;;;24.93;nan;98447.75;5008264;28;20136;-64
2023/09/24 04:02:16;;;;;;;26.92;22.80;;;;;;;24.92;nan;98435.28;5008706;28;20088;-64
2023/09/24 04:04:46;;;;;;;25.02;22.33;;;;;;;24.90;nan;98430.19;5037628;28;20802;-63
2023/09/24 04:07:16;;;;;;;23.70;20.92;;;;;;;24.80;nan;98414.03;5041815;28;20049;-63
2023/09/24 04:09:47;;;;;;;22.15;18.13;;;;;;;24.72;nan;98411.97;5058717;28;20525;-64
2023/09/24 04:12:17;;;;;;;23.35;18.05;;;;;;;24.75;nan;98408.69;5026051;28;20045;-63
2023/09/24 04:14:46;;;;;;;20.67;18.08;;;;;;;24.80;nan;98405.09;5044917;28;20067;-62
2023/09/24 04:17:15;;;;;;;22.77;19.35;;;;;;;24.75;nan;98399.75;5038990;28;20049;-63
2023/09/24 04:19:45;;;;;;;21.95;19.15;;;;;;;24.75;nan;98407.88;5025091;28;20064;-63
2023/09/24 04:22:15;;;;;;;24.35;19.20;;;;;;;24.80;nan;98400.50;5025761;28;20499;-63
2023/09/24 04:24:44;;;;;;;23.02;19.10;;;;;;;25.05;nan;98396.63;5013016;28;20049;-63
2023/09/24 04:27:15;;;;;;;26.20;18.33;;;;;;;24.87;nan;98387.41;5024940;28;20045;-63
2023/09/24 04:29:44;;;;;;;19.40;16.35;;;;;;;24.84;nan;98389.88;5025686;28;20067;-63
2023/09/24 04:32:15;;;;;;;18.25;15.65;;;;;;;24.83;nan;98396.38;5023822;28;20077;-64
2023/09/24 04:34:48;;;;;;;23.35;16.77;;;;;;;24.73;nan;98389.22;5026212;28;20068;-64
2023/09/24 04:37:17;;;;;;;21.30;16.60;;;;;;;24.70;nan;98376.25;5025464;28;20052;-63
2023/09/24 04:39:48;;;;;;;19.30;16.83;;;;;;;24.71;nan;98374.34;5025766;28;20111;-64
2023/09/24 04:42:17;;;;;;;19.05;14.95;;;;;;;24.49;nan;98355.94;5042863;28;20358;-64
2023/09/24 04:44:46;;;;;;;15.15;12.13;;;;;;;24.46;nan;98348.41;5038053;28;20073;-64
2023/09/24 04:47:16;;;;;;;16.58;12.13;;;;;;;24.57;nan;98347.16;5044196;28;20052;-64
2023/09/24 04:49:45;;;;;;;19.38;14.27;;;;;;;24.53;nan;98335.31;5037413;28;20474;-64
2023/09/24 04:52:14;;;;;;;18.15;13.80;;;;;;;24.70;nan;98313.13;5028068;28;20079;-65
2023/09/24 04:54:44;;;;;;;16.33;14.10;;;;;;;24.82;nan;98295.38;5025627;28;20049;-64
2023/09/24 04:57:14;;;;;;;17.05;14.23;;;;;;;24.70;nan;98278.72;5024906;28;20053;-64
2023/09/24 04:59:43;;;;;;;22.70;15.13;;;;;;;24.73;nan;98261.91;5038910;28;20057;-64
2023/09/24 05:02:12;;;;;;;16.67;14.32;;;;;;;24.88;nan;98253.56;5025192;28;20045;-64
2023/09/24 05:04:43;;;;;;;19.23;15.63;;;;;;;25.01;nan;98236.53;5025609;28;20586;-64
2023/09/24 05:07:13;;;;;;;21.13;16.13;;;;;;;25.80;nan;98225.59;5024352;28;20053;-64
2023/09/24 05:09:43;;;;;;;18.35;15.40;;;;;;;26.42;nan;98224.00;5011752;28;20153;-64
2023/09/24 05:12:13;;;;;;;18.75;14.80;;;;;;;26.59;nan;98212.47;5026791;28;20084;-64
2023/09/24 05:14:42;;;;;;;18.98;13.25;;;;;;;26.67;nan;98209.81;5027436;28;20073;-64
2023/09/24 05:17:14;;;;;;;17.40;13.33;;;;;;;26.79;nan;98201.06;5041847;28;20068;-64
2023/09/24 05:19:44;;;;;;;14.05;11.55;;;;;;;27.77;nan;98204.47;5027764;28;20321;-64
2023/09/24 05:22:13;;;;;;;14.07;11.13;;;;;;;27.84;nan;98204.78;5044487;28;20146;-63
2023/09/24 05:24:42;;;;;;;12.68;9.38;;;;;;;27.62;nan;98213.84;5041471;28;20057;-65
2023/09/24 05:27:17;;;;;;;12.10;8.07;;;;;;;27.50;nan;98216.38;5044670;28;20045;-65
2023/09/24 05:29:48;;;;;;;9.35;6.63;;;;;;;27.26;nan;98215.94;5042767;28;20044;-65
2023/09/24 05:32:17;;;;;;;10.98;7.80;;;;;;;27.44;nan;98214.88;5032999;28;20365;-65
2023/09/24 05:34:54;;;;;;;8.27;7.10;;;;;;;27.46;nan;98228.97;5043934;28;20074;-65
2023/09/24 05:37:23;;;;;;;11.02;8.23;;;;;;;27.37;nan;98244.47;5025709;28;20161;-65
2023/09/24 05:39:52;;;;;;;11.93;8.35;;;;;;;27.06;nan;98235.50;5027438;28;20424;-65
2023/09/24 05:42:22;;;;;;;14.10;10.35;;;;;;;26.87;nan;98232.97;5023766;28;20485;-65
2023/09/24 05:44:51;;;;;;;15.95;11.38;;;;;;;26.93;nan;98239.09;5025527;28;20053;-66
2023/09/24 05:47:21;;;;;;;13.50;11.13;;;;;;;27.14;nan;98238.25;5037250;28;20049;-65
2023/09/24 05:49:50;;;;;;;17.65;11.35;;;;;;;27.19;nan;98245.47;5024694;28;20139;-63
2023/09/24 05:52:19;;;;;;;14.75;11.80;;;;;;;27.15;nan;98231.72;5035263;28;20103;-63
2023/09/24 05:54:49;;;;;;;15.70;10.85;;;;;;;27.00;nan;98226.66;5065048;28;20044;-64
2023/09/24 05:57:18;;;;;;;11.45;10.05;;;;;;;27.14;nan;98223.84;5054794;28;20071;-64
2023/09/24 05:59:47;;;;;;;14.48;10.35;;;;;;;27.74;nan;98228.78;5043864;28;20053;-64
2023/09/24 06:02:17;;;;;;;16.85;11.35;;;;;;;28.41;nan;98242.88;5043941;28;20057;-64
2023/09/24 06:04:46;;;;;;;17.30;12.18;;;;;;;28.21;nan;98235.31;5039783;28;20151;-64
2023/09/24 06:07:16;;;;;;;12.27;10.98;;;;;;;27.98;nan;98213.63;5037950;28;20045;-64
2023/09/24 06:09:46;;;;;;;14.65;10.23;;;;;;;27.75;nan;98198.53;5038362;28;20061;-64
2023/09/24 06:12:17;;;;;;;12.73;10.20;;;;;;;28.30;nan;98204.25;5043215;28;20604;-65
2023/09/24 06:14:46;;;;;;;15.93;11.45;;;;;;;28.79;nan;98202.97;5044528;28;20063;-65
2023/09/24 06:17:16;;;;;;;16.65;13.05;;;;;;;28.90;nan;98192.53;5039497;28;20226;-65
2023/09/24 06:19:46;;;;;;;17.75;13.32;;;;;;;28.80;nan;98181.97;5032770;28;20041;-65
2023/09/24 06:22:15;;;;;;;21.05;13.68;;;;;;;29.13;nan;98179.44;5043661;28;20081;-65
2023/09/24 06:24:44;;;;;;;19.38;13.13;;;;;;;29.55;nan;98191.38;5058497;28;20044;-64
2023/09/24 06:27:14;;;;;;;16.65;13.40;;;;;;;29.39;nan;98194.63;5059495;28;20049;-64
2023/09/24 06:29:43;;;;;;;19.27;12.77;;;;;;;29.50;nan;98206.00;5047891;28;20831;-64
2023/09/24 06:32:13;;;;;;;16.92;14.05;;;;;;;29.28;nan;98187.13;5046294;28;20041;-64
2023/09/24 06:34:42;;;;;;;17.73;14.18;;;;;;;29.70;nan;98182.59;5048071;28;20535;-64
2023/09/24 06:37:12;;;;;;;15.95;12.70;;;;;;;29.58;nan;98172.38;5046689;28;20130;-64
2023/09/24 06:39:42;;;;;;;15.77;12.25;;;;;;;29.43;nan;98171.00;5057162;28;20666;-64
2023/09/24 06:42:11;;;;;;;13.20;11.18;;;;;;;29.32;nan;98171.72;5044167;28;20087;-64
2023/09/24 06:44:41;;;;;;;17.52;11.23;;;;;;;29.30;nan;98184.88;5042681;28;20425;-64
2023/09/24 06:47:10;;;;;;;14.63;10.50;;;;;;;29.60;nan;98183.78;5035683;28;20045;-64
2023/09/24 06:49:39;;;;;;;13.18;11.02;;;;;;;29.93;nan;98186.66;5047202;28;20507;-64
2023/09/24 06:52:26;;;;;;;18.08;12.60;;;;;;;29.71;nan;98179.53;5046489;28;20052;-65
2023/09/24 06:54:56;;;;;;;20.38;15.07;;;;;;;29.77;nan;98174.69;5045250;28;20557;-65
2023/09/24 06:57:25;;;;;;;18.58;15.32;;;;;;;30.09;nan;98170.50;5032154;28;20049;-66
2023/09/24 06:59:55;;;;;;;22.52;16.13;;;;;;;29.90;nan;98173.69;5050013;28;20150;-66
2023/09/24 07:02:25;;;;;;;24.00;16.00;;;;;;;29.62;nan;98175.25;5048901;28;20069;-65
2023/09/24 07:04:54;;;;;;;20.35;15.18;;;;;;;29.05;nan;98180.28;5030615;28;20048;-64
2023/09/24 07:07:24;;;;;;;22.92;15.52;;;;;;;29.40;nan;98177.13;5046960;28;20040;-66
2023/09/24 07:09:53;;;;;;;18.00;14.40;;;;;;;29.47;nan;98167.66;5037191;28;20144;-67
2023/09/24 07:12:23;;;;;;;20.95;15.45;;;;;;;29.72;nan;98156.56;5056606;28;20047;-67
2023/09/24 07:14:53;;;;;;;23.20;16.00;;;;;;;29.58;nan;98172.38;5022734;28;20058;-67
2023/09/24 07:17:22;;;;;;;30.33;18.27;;;;;;;29.25;nan;98160.50;5035876;28;20527;-67
2023/09/24 07:19:52;;;;;;;25.83;16.95;;;;;;;29.46;nan;98169.56;5028114;28;20844;-66
2023/09/24 07:22:25;;;;;;;24.83;17.23;;;;;;;29.85;nan;98160.19;5044486;28;20053;-65
2023/09/24 07:24:55;;;;;;;27.60;18.63;;;;;;;30.03;nan;98158.16;5039187;28;20368;-67
2023/09/24 07:27:24;;;;;;;23.85;16.80;;;;;;;29.64;nan;98142.97;5044321;28;20096;-66
2023/09/24 07:29:53;;;;;;;25.60;16.50;;;;;;;29.74;nan;98146.13;5044236;28;20063;-66
2023/09/24 07:32:23;;;;;;;25.90;15.40;;;;;;;29.80;nan;98153.00;5045044;28;20833;-63
2023/09/24 07:34:53;;;;;;;21.73;16.00;;;;;;;29.79;nan;98147.84;5046770;28;20139;-65
2023/09/24 07:37:39;;;;;;;25.42;17.10;;;;;;;29.82;nan;98144.47;5042976;28;20036;-64
2023/09/24 07:40:09;;;;;;;23.80;18.13;;;;;;;29.63;nan;98138.66;5043225;28;20056;-65
2023/09/24 07:42:38;;;;;;;25.85;19.58;;;;;;;29.42;nan;98150.34;5052922;28;20055;-65
2023/09/24 07:45:12;;;;;;;25.52;19.35;;;;;;;29.47;nan;98143.88;5032958;28;20049;-65
2023/09/24 07:47:42;;;;;;;29.63;21.05;;;;;;;29.26;nan;98146.50;5048969;28;20057;-64
2023/09/24 07:50:11;;;;;;;31.15;21.20;;;;;;;29.01;nan;98141.97;5037793;28;20477;-66
2023/09/24 07:52:41;;;;;;;22.42;17.60;;;;;;;29.26;nan;98143.78;5045486;28;20076;-65
2023/09/24 07:55:10;;;;;;;23.95;17.98;;;;;;;29.26;nan;98141.06;5056296;28;20710;-66
2023/09/24 07:57:39;;;;;;;22.90;16.23;;;;;;;29.39;nan;98131.06;5051870;28;20057;-66
2023/09/24 08:00:09;;;;;;;25.08;16.33;;;;;;;29.30;nan;98133.84;5053597;28;20639;-66
2023/09/24 08:02:43;;;;;;;21.25;14.32;;;;;;;29.26;nan;98127.41;5043785;28;20056;-66
2023/09/24 08:05:13;;;;;;;19.40;14.25;;;;;;;29.33;nan;98118.75;5055471;28;20109;-66
2023/09/24 08:07:43;;;;;;;21.35;14.68;;;;;;;29.50;nan;98120.59;5054518;28;20171;-66
2023/09/24 08:10:13;;;;;;;21.55;16.10;;;;;;;29.43;nan;98104.75;5062963;28;20064;-65
2023/09/24 08:12:43;;;;;;;19.58;14.68;;;;;;;29.66;nan;98102.50;5026509;28;20367;-66
2023/09/24 08:15:12;;;;;;;21.27;15.35;;;;;;;29.59;nan;98094.84;5026363;28;20060;-66
2023/09/24 08:17:42;;;;;;;21.38;13.45;;;;;;;29.35;nan;98081.81;5032813;28;20060;-67
2023/09/24 08:20:12;;;;;;;13.43;11.50;;;;;;;29.30;nan;98090.19;5028694;28;21588;-67
2023/09/24 08:22:41;;;;;;;16.20;11.25;;;;;;;29.44;nan;98090.75;5041463;28;20045;-66
2023/09/24 08:25:11;;;;;;;16.23;10.85;;;;;;;29.36;nan;98086.16;5044092;28;20527;-71
2023/09/24 08:27:40;;;;;;;15.55;10.20;;;;;;;29.51;nan;98075.78;5030544;28;20104;-71
2023/09/24 08:30:09;;;;;;;19.00;11.57;;;;;;;;;;5044047;28;20074;-71
2023/09/24 08:32:39;;;;;;;16.65;11.63;;;;;;;29.59;nan;98073.00;5025338;28;20505;-69
2023/09/24 08:35:08;;;;;;;19.45;13.30;;;;;;;29.54;nan;98059.56;5025788;28;20123;-71
2023/09/24 08:37:38;;;;;;;16.23;12.95;;;;;;;29.59;nan;98061.28;5018643;28;20045;-72
2023/09/24 08:40:09;;;;;;;18.75;16.58;;;;;;;29.50;nan;98055.91;5045560;28;20056;-70
2023/09/24 08:42:40;;;;;;;19.67;16.15;;;;;;;29.53;nan;98051.69;5043414;28;20107;-70
2023/09/24 08:45:11;;;;;;;20.05;17.25;;;;;;;29.60;nan;98058.25;5045371;28;20114;-71
2023/09/24 08:47:42;;;;;;;23.65;18.52;;;;;;;29.59;nan;98039.44;5036074;28;20165;-71
2023/09/24 08:50:12;;;;;;;25.95;20.80;;;;;;;29.62;nan;98038.78;5036212;28;20049;-71
2023/09/24 08:52:44;;;;;;;28.05;21.50;;;;;;;29.61;nan;98031.75;5025424;28;20771;-71
2023/09/24 08:55:15;;;;;;;25.13;21.27;;;;;;;29.60;nan;98025.50;5025407;28;20145;-71
2023/09/24 08:57:45;;;;;;;26.30;21.92;;;;;;;29.58;nan;98029.66;5036346;28;20810;-71
2023/09/24 09:00:16;;;;;;;24.92;20.98;;;;;;;29.52;nan;98022.81;5042348;28;20049;-71
2023/09/24 09:02:45;;;;;;;25.42;21.77;;;;;;;29.51;nan;98022.03;5038024;28;20057;-71
2023/09/24 09:05:24;;;;;;;27.33;21.00;;;;;;;29.47;nan;98033.94;5045076;28;20056;-70
2023/09/24 09:08:01;;;;;;;25.08;20.52;;;;;;;29.45;nan;98034.25;5045555;28;20471;-72
2023/09/24 09:10:36;;;;;;;22.95;19.95;;;;;;;29.45;nan;98039.72;5041474;28;20053;-69
2023/09/24 09:13:14;;;;;;;25.52;20.30;;;;;;;29.48;nan;98033.56;5044728;28;20510;-71
2023/09/24 09:15:44;;;;;;;21.75;18.13;;;;;;;29.48;nan;98036.31;5045377;28;20139;-71
2023/09/24 09:18:25;;;;;;;21.60;18.13;;;;;;;29.51;nan;98030.22;5030688;28;20041;-69
2023/09/24 09:21:01;;;;;;;20.77;15.77;;;;;;;29.50;nan;98027.81;5020182;28;20782;-70
2023/09/24 09:23:41;;;;;;;18.92;15.32;;;;;;;29.52;nan;98028.28;5023521;28;20045;-69
2023/09/24 09:26:10;;;;;;;14.63;12.75;;;;;;;29.51;nan;98018.50;5038577;28;20060;-71
2023/09/24 09:28:39;;;;;;;12.85;11.35;;;;;;;29.50;nan;98022.34;5026040;28;20107;-70
2023/09/24 09:31:10;;;;;;;12.88;10.93;;;;;;;29.51;nan;98021.22;5028370;28;20056;-72
2023/09/24 09:33:42;;;;;;;12.48;9.68;;;;;;;29.48;nan;98019.13;5027870;28;20054;-71
2023/09/24 09:36:30;;;;;;;11.30;10.10;;;;;;;29.47;nan;98023.00;5004885;28;20088;-70
2023/09/24 09:39:00;;;;;;;12.60;9.60;;;;;;;29.48;nan;98024.59;5004748;28;20050;-71
2023/09/24 09:41:33;;;;;;;10.43;8.93;;;;;;;29.44;nan;98028.00;5017376;28;20461;-70
2023/09/24 09:44:07;;;;;;;10.93;9.00;;;;;;;29.42;nan;98021.28;5024162;28;20057;-70
2023/09/24 09:46:39;;;;;;;11.00;9.25;;;;;;;29.39;nan;98013.75;5023801;28;20059;-70
2023/09/24 09:49:10;;;;;;;10.38;9.27;;;;;;;29.39;nan;98022.72;5036024;28;20052;-72
2023/09/24 09:51:45;;;;;;;10.57;8.90;;;;;;;29.38;nan;98023.06;5025958;28;20586;-69
2023/09/24 09:54:16;;;;;;;9.60;8.32;;;;;;;29.34;nan;98016.69;5034246;28;20587;-71
2023/09/24 09:56:47;;;;;;;9.82;7.60;;;;;;;29.33;nan;98024.06;4998449;28;20049;-70
2023/09/24 09:59:19;;;;;;;8.15;7.35;;;;;;;29.33;nan;98015.88;5044097;28;20074;-70
2023/09/24 10:01:48;;;;;;;8.30;7.50;;;;;;;29.35;nan;98012.81;5036642;28;20121;-71
2023/09/24 10:04:18;;;;;;;10.60;8.02;;;;;;;29.35;nan;98010.88;5029743;28;20465;-69
2023/09/24 10:06:47;;;;;;;9.73;8.68;;;;;;;29.36;nan;97995.31;5046820;28;20048;-70
2023/09/24 10:09:32;;;;;;;9.77;7.93;;;;;;;29.34;nan;97994.88;5027649;28;20060;-70
2023/09/24 10:12:06;;;;;;;8.48;7.65;;;;;;;29.32;nan;97988.94;5012039;28;20060;-70
2023/09/24 10:14:45;;;;;;;7.35;6.50;;;;;;;29.26;nan;97982.81;5037327;28;20064;-70
2023/09/24 10:17:17;;;;;;;7.88;7.07;;;;;;;29.28;nan;97986.03;5027724;28;20041;-71
2023/09/24 10:19:49;;;;;;;8.93;8.07;;;;;;;29.28;nan;97986.03;5028013;28;20041;-71
2023/09/24 10:22:34;;;;;;;7.93;7.10;;;;;;;29.26;nan;97979.31;5027572;28;20057;-71
2023/09/24 10:25:34;;;;;;;8.40;7.57;;;;;;;29.28;nan;97980.59;5024168;28;20158;-70
2023/09/24 10:28:08;;;;;;;9.00;7.65;;;;;;;29.27;nan;97973.53;5027430;28;20041;-71
2023/09/24 10:31:09;;;;;;;10.13;8.40;;;;;;;29.28;nan;97963.41;5028588;28;20037;-69
2023/09/24 10:34:02;;;;;;;12.68;8.25;;;;;;;29.24;nan;97971.47;5027892;28;20049;-70
2023/09/24 10:36:35;;;;;;;10.48;7.57;;;;;;;29.24;nan;97970.66;5027424;28;20067;-71
2023/09/24 10:39:13;;;;;;;8.07;6.70;;;;;;;29.21;nan;97958.47;5027968;28;20057;-71
2023/09/24 10:42:12;;;;;;;9.45;7.35;;;;;;;29.17;nan;97970.38;5027190;28;20046;-70
2023/09/24 10:44:43;;;;;;;10.60;6.47;;;;;;;29.15;nan;97964.47;5028267;28;20041;-72
2023/09/24 10:47:27;;;;;;;9.45;6.65;;;;;;;29.14;nan;97958.22;5027740;28;20076;-70
2023/09/24 10:50:15;;;;;;;9.13;6.82;;;;;;;29.12;nan;97944.09;5027665;28;20046;-68
2023/09/24 10:52:54;;;;;;;7.90;6.25;;;;;;;29.09;nan;97950.22;5043807;28;20180;-70
2023/09/24 10:55:29;;;;;;;6.15;4.97;;;;;;;29.04;nan;97950.41;5027550;28;20128;-70
2023/09/24 10:58:09;;;;;;;5.70;5.10;;;;;;;28.98;nan;97943.56;5027571;28;20064;-70
2023/09/24 11:00:39;;;;;;;5.90;5.15;;;;;;;28.99;nan;97945.16;5043277;28;20741;-70
2023/09/24 11:03:13;;;;;;;9.57;5.45;;;;;;;28.93;nan;97938.31;5026556;28;20116;-69
2023/09/24 11:05:49;;;;;;;6.35;5.75;;;;;;;28.89;nan;97942.84;5028167;28;20057;-69
2023/09/24 11:08:27;;;;;;;6.18;5.18;;;;;;;28.89;nan;97940.91;5027126;28;20073;-68
2023/09/24 11:10:57;;;;;;;8.80;5.70;;;;;;;28.87;nan;97936.91;5027529;28;20069;-70
2023/09/24 11:13:26;;;;;;;8.02;5.97;;;;;;;28.82;nan;97934.34;5033304;28;20041;-70
2023/09/24 11:15:56;;;;;;;9.93;5.50;;;;;;;28.75;nan;97929.44;5044007;28;20037;-70
2023/09/24 11:18:28;;;;;;;5.78;4.35;;;;;;;28.75;nan;97939.53;5033503;28;20717;-70
2023/09/24 11:20:57;;;;;;;6.55;4.38;;;;;;;28.77;nan;97940.00;5029135;28;20447;-70
2023/09/24 11:23:36;;;;;;;5.35;4.45;;;;;;;28.72;nan;97946.47;5011763;28;20042;-71
2023/09/24 11:26:06;;;;;;;6.07;4.53;;;;;;;28.70;nan;97948.69;5007427;28;20517;-71
2023/09/24 11:28:35;;;;;;;7.03;5.18;;;;;;;28.70;nan;97948.69;5022412;28;20092;-72
2023/09/24 11:31:05;;;;;;;9.98;5.65;;;;;;;28.68;nan;97942.75;5025372;28;20887;-73
2023/09/24 11:33:34;;;;;;;6.82;5.63;;;;;;;28.67;nan;97937.63;5027202;28;20151;-68
2023/09/24 11:36:16;;;;;;;6.72;5.20;;;;;;;28.65;nan;97937.16;5026431;28;20046;-69
2023/09/24 11:38:45;;;;;;;7.68;6.00;;;;;;;28.62;nan;97937.81;5026686;28;20050;-69
2023/09/24 11:41:15;;;;;;;8.70;5.95;;;;;;;28.56;nan;97938.00;5031408;28;20575;-70
2023/09/24 11:43:58;;;;;;;8.48;5.60;;;;;;;28.54;nan;97940.28;5027387;28;20057;-70
2023/09/24 11:46:28;;;;;;;7.18;5.30;;;;;;;28.52;nan;97931.59;5026744;28;20045;-70
2023/09/24 11:49:01;;;;;;;10.20;5.40;;;;;;;28.46;nan;97923.94;5027153;28;20058;-70
2023/09/24 11:51:30;;;;;;;6.65;5.55;;;;;;;28.45;nan;97925.88;5020252;28;20049;-70
2023/09/24 11:54:00;;;;;;;6.97;5.85;;;;;;;28.41;nan;97930.38;5023773;28;20049;-71
2023/09/24 11:56:33;;;;;;;8.63;4.70;;;;;;;28.35;nan;97931.69;5037783;28;20144;-70